Skip Navigation Links Skip Navigation Links

Current Weather

Burlington-Alamance Rgnl, Burlington, N.C.

For information only: do not use for flight planning or navigation.
Latest weather
Observation time Friday, December 4, 2020 1:54 AM EST
Local time Friday, December 4, 2020 2:43 AM EST
Flight conditions Visual Meteorological Conditions
Winds
Wind speed calm
Visibility 10 mi.
Sky condition
Ceiling 11,000 ft. broken clouds
Cloud layer broken clouds 11,000 ft.
Temperature 42°F
Dewpoint 33°F
Altimeter 30.21 in.Hg
Derived measurements
Relative humidity 70%
Wind chill 42°F
Density altitude -752 ft.
Sea-level pressure 30.21 in.Hg
Remarks
Fully automated report.
Automated weather observing station with precipitation discriminator.
METAR KBUY 040654Z AUTO 00000KT 10SM BKN110 06/01 A3021 RMK AO2 SLP231 T00560006

Settings

Location code

InnerDrive.Weather 4.0.6770.0 Release CLR 4.0.30319.42000
Copyright ©2018 Inner Drive Technology. All rights reserved. Portions Copyright ©1986-2018 David Braverman.

Find weather

Site navigation


Skip Navigation Links

Place info

Page info

PayPal - The safer, easier way to pay online!

Return home.

Copyright ©2020 Inner Drive Technology. Purveyors of fine, hand-crafted computer software. Page printed 2020-12-04T07:43:11 UTC.